createdAt,value
2022-09-28T00:00:58.710Z,20.90
2022-09-28T00:03:25.551Z,20.90
2022-09-28T00:05:52.108Z,20.90
2022-09-28T00:08:18.658Z,20.90
2022-09-28T00:10:45.673Z,20.90
2022-09-28T00:13:12.293Z,20.90
2022-09-28T00:15:38.925Z,20.90
2022-09-28T00:18:05.544Z,20.90
2022-09-28T00:20:32.500Z,20.90
2022-09-28T00:22:59.074Z,20.90
2022-09-28T00:25:25.682Z,20.80
2022-09-28T00:27:52.316Z,20.80
2022-09-28T00:30:18.899Z,20.90
2022-09-28T00:32:45.467Z,20.90
2022-09-28T00:35:12.092Z,20.90
2022-09-28T00:37:39.154Z,20.80
2022-09-28T00:40:06.085Z,20.80
2022-09-28T00:42:32.667Z,20.80
2022-09-28T00:44:59.670Z,20.90
2022-09-28T00:47:30.063Z,20.80
2022-09-28T00:49:59.418Z,20.80
2022-09-28T00:52:32.177Z,20.80
2022-09-28T00:54:59.939Z,20.70
2022-09-28T00:57:27.354Z,20.80
2022-09-28T00:59:54.330Z,20.80
2022-09-28T01:02:21.235Z,20.80
2022-09-28T01:04:48.494Z,20.80
2022-09-28T01:07:16.223Z,20.80
2022-09-28T01:09:43.954Z,20.80
2022-09-28T01:12:10.563Z,20.80
2022-09-28T01:14:37.775Z,20.80
2022-09-28T01:17:14.607Z,20.80
2022-09-28T01:19:52.862Z,20.80
2022-09-28T01:22:19.423Z,20.80
2022-09-28T01:24:46.810Z,20.80
2022-09-28T01:27:22.531Z,20.80
2022-09-28T01:29:52.241Z,20.80
2022-09-28T01:32:22.541Z,20.80
2022-09-28T01:34:51.846Z,20.80
2022-09-28T01:37:19.649Z,20.80
2022-09-28T01:39:48.748Z,20.80
2022-09-28T01:42:27.256Z,20.80
2022-09-28T01:44:56.769Z,20.80
2022-09-28T01:47:24.567Z,20.80
2022-09-28T01:49:54.576Z,20.80
2022-09-28T01:52:40.979Z,20.80
2022-09-28T01:55:11.008Z,20.70
2022-09-28T01:57:39.760Z,20.70
2022-09-28T02:00:08.372Z,20.80
2022-09-28T02:02:40.933Z,20.70
2022-09-28T02:05:13.595Z,20.70
2022-09-28T02:07:59.588Z,20.80
2022-09-28T02:10:29.916Z,20.80
2022-09-28T02:13:05.384Z,20.70
2022-09-28T02:16:01.428Z,20.70
2022-09-28T02:18:28.117Z,20.80
2022-09-28T02:21:06.426Z,20.70
2022-09-28T02:23:35.157Z,20.70
2022-09-28T02:26:03.449Z,20.70
2022-09-28T02:28:30.199Z,20.70
2022-09-28T02:30:57.055Z,20.70
2022-09-28T02:33:29.459Z,20.70
2022-09-28T02:35:57.589Z,20.70
2022-09-28T02:38:24.200Z,20.70
2022-09-28T02:40:57.692Z,20.70
2022-09-28T02:43:26.820Z,20.70
2022-09-28T02:45:59.465Z,20.70
2022-09-28T02:48:43.630Z,20.70
2022-09-28T02:51:29.501Z,20.70
2022-09-28T02:54:08.317Z,20.70
2022-09-28T02:56:59.137Z,20.70
2022-09-28T02:59:25.710Z,20.70
2022-09-28T03:02:12.598Z,20.60
2022-09-28T03:05:05.598Z,20.70
2022-09-28T03:07:36.805Z,20.70
2022-09-28T03:10:08.549Z,20.70
2022-09-28T03:12:36.352Z,20.70
2022-09-28T03:15:21.531Z,20.70
2022-09-28T03:17:48.153Z,20.70
2022-09-28T03:20:14.985Z,20.70
2022-09-28T03:22:41.619Z,20.70
2022-09-28T03:25:08.762Z,20.60
2022-09-28T03:27:35.379Z,20.60
2022-09-28T03:30:01.949Z,20.60
2022-09-28T03:32:28.567Z,20.60
2022-09-28T03:34:55.836Z,20.70
2022-09-28T03:37:22.729Z,20.70
2022-09-28T03:39:49.341Z,20.60
2022-09-28T03:42:15.905Z,20.70
2022-09-28T03:44:42.531Z,20.70
2022-09-28T03:47:09.247Z,20.60
2022-09-28T03:49:35.926Z,20.70
2022-09-28T03:52:03.098Z,20.60
2022-09-28T03:54:29.697Z,20.50
2022-09-28T03:56:56.342Z,20.60
2022-09-28T03:59:22.939Z,20.60
2022-09-28T04:01:50.142Z,20.60
2022-09-28T04:04:16.827Z,20.60
2022-09-28T04:06:43.517Z,20.60
2022-09-28T04:09:10.185Z,20.60
2022-09-28T04:11:53.182Z,20.60
2022-09-28T04:14:23.345Z,20.60
2022-09-28T04:16:52.221Z,20.60
2022-09-28T04:19:19.988Z,20.60
2022-09-28T04:21:47.023Z,20.60
2022-09-28T04:24:14.387Z,20.60
2022-09-28T04:26:40.996Z,20.60
2022-09-28T04:29:18.858Z,20.60
2022-09-28T04:31:47.413Z,20.60
2022-09-28T04:34:17.196Z,20.60
2022-09-28T04:36:47.494Z,20.60
2022-09-28T04:39:14.842Z,20.60
2022-09-28T04:41:41.777Z,20.60
2022-09-28T04:44:08.790Z,20.60
2022-09-28T04:46:35.581Z,20.60
2022-09-28T04:49:02.462Z,20.60
2022-09-28T04:51:30.941Z,20.60
2022-09-28T04:53:57.509Z,20.60
2022-09-28T04:56:24.091Z,20.60
2022-09-28T04:58:52.817Z,20.60
2022-09-28T05:01:23.330Z,20.60
2022-09-28T05:03:51.009Z,20.60
2022-09-28T05:06:17.864Z,20.60
2022-09-28T05:08:46.858Z,20.60
2022-09-28T05:11:14.261Z,20.60
2022-09-28T05:13:41.963Z,20.60
2022-09-28T05:16:09.221Z,20.60
2022-09-28T05:18:36.104Z,20.60
2022-09-28T05:21:02.863Z,20.70
2022-09-28T05:23:29.503Z,20.60
2022-09-28T05:25:56.095Z,20.60
2022-09-28T05:28:25.266Z,20.60
2022-09-28T05:30:52.236Z,20.60
2022-09-28T05:33:18.849Z,20.60
2022-09-28T05:35:47.141Z,20.60
2022-09-28T05:38:16.506Z,20.60
2022-09-28T05:40:43.521Z,20.60
2022-09-28T05:43:10.157Z,20.60
2022-09-28T05:45:36.837Z,20.60
2022-09-28T05:48:03.476Z,20.60
2022-09-28T05:50:30.018Z,20.60
2022-09-28T05:53:06.889Z,20.60
2022-09-28T05:55:33.788Z,20.60
2022-09-28T05:58:00.740Z,20.60
2022-09-28T06:00:27.616Z,20.60
2022-09-28T06:02:58.282Z,20.60
2022-09-28T06:05:25.097Z,20.60
2022-09-28T06:07:51.937Z,20.60
2022-09-28T06:10:18.799Z,20.60
2022-09-28T06:12:47.801Z,20.60
2022-09-28T06:15:15.166Z,20.60
2022-09-28T06:17:43.759Z,20.60
2022-09-28T06:20:11.165Z,20.60
2022-09-28T06:22:38.307Z,20.70
2022-09-28T06:25:05.528Z,20.60
2022-09-28T06:27:32.382Z,20.60
2022-09-28T06:30:00.795Z,20.70
2022-09-28T06:32:29.175Z,20.80
2022-09-28T06:34:56.618Z,20.90
2022-09-28T06:37:23.381Z,20.70
2022-09-28T06:39:49.981Z,20.90
2022-09-28T06:42:18.645Z,20.90
2022-09-28T06:44:46.278Z,20.90
2022-09-28T06:47:12.895Z,21.00
2022-09-28T06:49:39.526Z,21.00
2022-09-28T06:52:06.092Z,21.00
2022-09-28T06:54:32.775Z,21.10
2022-09-28T06:56:59.522Z,21.10
2022-09-28T06:59:26.134Z,21.20
2022-09-28T07:01:53.887Z,21.20
2022-09-28T07:04:20.625Z,21.10
2022-09-28T07:06:48.009Z,21.20
2022-09-28T07:09:30.437Z,21.20
2022-09-28T07:11:58.794Z,21.30
2022-09-28T07:14:46.166Z,21.30
2022-09-28T07:17:14.213Z,21.30
2022-09-28T07:19:41.133Z,21.30
2022-09-28T07:22:07.941Z,21.40
2022-09-28T07:24:34.576Z,21.30
2022-09-28T07:27:04.436Z,21.40
2022-09-28T07:29:31.005Z,21.30
2022-09-28T07:31:57.597Z,21.30
2022-09-28T07:34:24.296Z,21.40
2022-09-28T07:36:51.895Z,21.30
2022-09-28T07:39:18.590Z,21.40
2022-09-28T07:41:45.120Z,21.40
2022-09-28T07:44:11.971Z,21.40
2022-09-28T07:46:38.569Z,21.40
2022-09-28T07:49:08.496Z,21.50
2022-09-28T07:51:38.303Z,21.50
2022-09-28T07:54:06.525Z,21.40
2022-09-28T07:56:34.806Z,21.40
2022-09-28T07:59:01.446Z,21.50
2022-09-28T08:01:30.527Z,21.50
2022-09-28T08:03:57.223Z,21.50
2022-09-28T08:06:23.821Z,21.50
2022-09-28T08:08:52.804Z,21.50
2022-09-28T08:11:19.444Z,21.50
2022-09-28T08:13:47.396Z,21.50
2022-09-28T08:16:14.114Z,21.50
2022-09-28T08:18:40.923Z,21.50
2022-09-28T08:21:26.121Z,21.50
2022-09-28T08:23:53.093Z,21.50
2022-09-28T08:26:19.855Z,21.40
2022-09-28T08:28:47.669Z,21.40
2022-09-28T08:31:14.520Z,21.40
2022-09-28T08:33:42.134Z,21.40
2022-09-28T08:36:09.462Z,21.40
2022-09-28T08:38:36.022Z,21.40
2022-09-28T08:41:18.003Z,21.30
2022-09-28T08:43:59.579Z,21.40
2022-09-28T08:46:31.293Z,21.50
2022-09-28T08:49:26.375Z,21.50
2022-09-28T08:51:53.228Z,21.60
2022-09-28T08:54:28.884Z,21.60
2022-09-28T08:56:59.944Z,21.70
2022-09-28T08:59:28.593Z,21.70
2022-09-28T09:01:58.022Z,21.70
2022-09-28T09:04:24.839Z,21.70
2022-09-28T09:06:51.496Z,21.70
2022-09-28T09:09:22.913Z,21.80
2022-09-28T09:11:57.275Z,21.80
2022-09-28T09:14:27.696Z,21.80
2022-09-28T09:17:12.864Z,21.80
2022-09-28T09:19:39.926Z,21.80
2022-09-28T09:22:15.219Z,21.80
2022-09-28T09:24:50.935Z,21.80
2022-09-28T09:27:23.343Z,21.80
2022-09-28T09:29:50.183Z,21.80
2022-09-28T09:32:25.565Z,21.90
2022-09-28T09:34:57.869Z,21.90
2022-09-28T09:37:34.556Z,21.80
2022-09-28T09:40:01.183Z,21.90
2022-09-28T09:42:40.645Z,22.80
2022-09-28T09:45:09.958Z,21.80
2022-09-28T09:47:45.094Z,21.80
2022-09-28T09:50:12.192Z,21.90
2022-09-28T09:52:47.712Z,21.80
2022-09-28T09:55:29.700Z,21.80
2022-09-28T09:58:00.141Z,21.70
2022-09-28T10:00:26.731Z,21.80
2022-09-28T10:02:54.095Z,21.80
2022-09-28T10:05:22.356Z,21.80
2022-09-28T10:07:51.983Z,21.80
2022-09-28T10:10:24.861Z,21.80
2022-09-28T10:12:51.922Z,21.90
2022-09-28T10:15:21.991Z,21.80
2022-09-28T10:17:48.805Z,21.80
2022-09-28T10:20:16.218Z,21.80
2022-09-28T10:22:43.842Z,21.80
2022-09-28T10:25:12.616Z,21.80
2022-09-28T10:27:41.134Z,21.90
2022-09-28T10:30:08.429Z,21.90
2022-09-28T10:32:46.107Z,21.90
2022-09-28T10:35:18.875Z,21.90
2022-09-28T10:37:56.552Z,21.90
2022-09-28T10:40:30.244Z,22.00
2022-09-28T10:43:05.065Z,22.00
2022-09-28T10:45:34.889Z,22.10
2022-09-28T10:48:04.142Z,22.10
2022-09-28T10:50:30.897Z,22.10
2022-09-28T10:53:17.802Z,22.10
2022-09-28T10:55:55.624Z,22.20
2022-09-28T10:58:27.157Z,22.20
2022-09-28T11:00:59.732Z,22.20
2022-09-28T11:03:27.797Z,22.30
2022-09-28T11:05:57.549Z,22.30
2022-09-28T11:08:36.151Z,22.30
2022-09-28T11:11:12.883Z,22.40
2022-09-28T11:13:46.795Z,22.30
2022-09-28T11:16:30.418Z,22.40
2022-09-28T11:18:58.484Z,22.10
2022-09-28T11:21:26.947Z,22.40
2022-09-28T11:23:58.063Z,22.30
2022-09-28T11:26:24.751Z,22.40
2022-09-28T11:28:52.815Z,22.40
2022-09-28T11:31:26.733Z,22.40
2022-09-28T11:34:02.394Z,22.40
2022-09-28T11:36:29.491Z,22.50
2022-09-28T11:38:59.068Z,22.60
2022-09-28T11:41:35.003Z,22.60
2022-09-28T11:44:04.413Z,22.70
2022-09-28T11:46:37.149Z,22.70
2022-09-28T11:49:22.527Z,22.80
2022-09-28T11:51:49.800Z,22.90
2022-09-28T11:54:28.909Z,22.80
2022-09-28T11:56:57.745Z,22.90
2022-09-28T11:59:48.664Z,23.00
2022-09-28T12:02:27.302Z,23.00
2022-09-28T12:04:53.974Z,23.10
2022-09-28T12:07:32.859Z,23.10
2022-09-28T12:10:02.534Z,23.20
2022-09-28T12:12:45.581Z,23.20
2022-09-28T12:15:15.174Z,23.20
2022-09-28T12:18:01.496Z,23.30
2022-09-28T12:20:31.570Z,23.40
2022-09-28T12:23:07.900Z,23.40
2022-09-28T12:25:39.367Z,23.50
2022-09-28T12:28:07.624Z,23.50
2022-09-28T12:30:40.474Z,23.60
2022-09-28T12:33:10.489Z,23.70
2022-09-28T12:35:55.690Z,23.70
2022-09-28T12:38:29.908Z,23.80
2022-09-28T12:41:08.679Z,23.80
2022-09-28T12:43:54.612Z,23.90
2022-09-28T12:46:33.458Z,23.70
2022-09-28T12:51:54.368Z,23.50
2022-09-28T12:54:41.312Z,23.50
2022-09-28T12:57:26.734Z,23.40
2022-09-28T13:00:05.792Z,23.40
2022-09-28T13:02:36.870Z,23.30
2022-09-28T13:05:22.067Z,23.30
2022-09-28T13:08:00.660Z,23.20
2022-09-28T13:10:39.892Z,23.20
2022-09-28T13:13:21.521Z,23.20
2022-09-28T13:16:08.384Z,23.20
2022-09-28T13:18:38.050Z,23.30
2022-09-28T13:21:28.787Z,23.00
2022-09-28T13:24:14.425Z,23.20
2022-09-28T13:26:46.225Z,23.10
2022-09-28T13:29:14.614Z,23.10
2022-09-28T13:31:53.185Z,23.00
2022-09-28T13:34:22.471Z,22.80
2022-09-28T13:37:07.991Z,22.80
2022-09-28T13:39:37.314Z,22.70
2022-09-28T13:42:05.683Z,22.70
2022-09-28T13:44:38.408Z,22.60
2022-09-28T13:47:08.547Z,22.20
2022-09-28T13:49:35.054Z,21.80
2022-09-28T13:52:06.681Z,21.20
2022-09-28T13:54:34.627Z,20.70
2022-09-28T13:57:24.063Z,20.00
2022-09-28T14:00:02.782Z,19.60
2022-09-28T14:02:29.407Z,19.70
2022-09-28T14:04:58.195Z,19.60
2022-09-28T14:07:33.998Z,19.50
2022-09-28T14:10:15.944Z,19.90
2022-09-28T14:12:42.505Z,20.20
2022-09-28T14:15:41.655Z,20.10
2022-09-28T14:18:11.247Z,20.60
2022-09-28T14:20:42.077Z,20.80
2022-09-28T14:23:33.084Z,21.10
2022-09-28T14:26:06.883Z,21.30
2022-09-28T14:28:49.111Z,21.40
2022-09-28T14:31:23.574Z,21.50
2022-09-28T14:33:54.780Z,21.60
2022-09-28T14:37:01.055Z,21.70
2022-09-28T14:39:49.686Z,21.80
2022-09-28T14:42:23.659Z,22.00
2022-09-28T14:45:05.029Z,22.30
2022-09-28T14:47:38.111Z,22.90
2022-09-28T14:50:19.973Z,23.10
2022-09-28T14:52:48.837Z,23.00
2022-09-28T14:55:17.255Z,22.80
2022-09-28T14:57:44.081Z,22.50
2022-09-28T15:00:20.322Z,22.10
2022-09-28T15:02:52.488Z,21.60
2022-09-28T15:05:22.317Z,21.50
2022-09-28T15:07:50.687Z,21.40
2022-09-28T15:10:36.867Z,21.40
2022-09-28T15:13:05.309Z,21.40
2022-09-28T15:15:34.381Z,21.40
2022-09-28T15:18:27.493Z,21.50
2022-09-28T15:20:54.513Z,21.50
2022-09-28T15:23:23.847Z,21.50
2022-09-28T15:25:54.337Z,21.60
2022-09-28T15:28:25.137Z,21.70
2022-09-28T15:30:58.478Z,21.80
2022-09-28T15:33:48.552Z,21.80
2022-09-28T15:36:20.233Z,21.90
2022-09-28T15:38:51.014Z,21.90
2022-09-28T15:41:17.653Z,21.90
2022-09-28T15:43:46.948Z,21.90
2022-09-28T15:46:18.345Z,22.00
2022-09-28T15:48:56.869Z,22.40
2022-09-28T15:51:24.302Z,22.00
2022-09-28T15:53:50.891Z,22.00
2022-09-28T15:56:17.563Z,22.00
2022-09-28T15:59:04.093Z,22.00
2022-09-28T16:01:36.647Z,22.00
2022-09-28T16:04:23.083Z,22.00
2022-09-28T16:07:09.012Z,22.10
2022-09-28T16:09:55.890Z,22.10
2022-09-28T16:12:23.946Z,22.10
2022-09-28T16:14:51.861Z,22.10
2022-09-28T16:17:20.502Z,22.10
2022-09-28T16:19:48.584Z,21.80
2022-09-28T16:22:20.439Z,22.10
2022-09-28T16:24:54.946Z,22.10
2022-09-28T16:27:24.920Z,22.10
2022-09-28T16:30:10.000Z,22.10
2022-09-28T16:32:38.369Z,22.20
2022-09-28T16:35:11.208Z,22.30
2022-09-28T16:37:38.408Z,22.30
2022-09-28T16:40:05.225Z,22.30
2022-09-28T16:42:31.882Z,22.30
2022-09-28T16:44:58.489Z,22.30
2022-09-28T16:47:25.090Z,22.20
2022-09-28T16:49:51.729Z,22.20
2022-09-28T16:52:38.236Z,22.10
2022-09-28T16:55:41.648Z,22.10
2022-09-28T16:58:04.867Z,22.10
2022-09-28T17:00:31.853Z,22.10
2022-09-28T17:02:58.614Z,22.10
2022-09-28T17:05:25.557Z,22.10
2022-09-28T17:08:02.636Z,22.00
2022-09-28T17:10:50.141Z,22.00
2022-09-28T17:13:26.920Z,22.00
2022-09-28T17:15:53.828Z,22.00
2022-09-28T17:18:20.795Z,22.00
2022-09-28T17:20:49.006Z,22.00
2022-09-28T17:23:16.042Z,21.90
2022-09-28T17:25:43.212Z,21.90
2022-09-28T17:28:32.916Z,21.90
2022-09-28T17:30:59.630Z,21.90
2022-09-28T17:33:26.436Z,21.90
2022-09-28T17:35:56.655Z,21.90
2022-09-28T17:38:23.263Z,21.80
2022-09-28T17:40:50.060Z,21.90
2022-09-28T17:43:16.732Z,21.80
2022-09-28T17:45:44.731Z,21.90
2022-09-28T17:48:18.416Z,21.90
2022-09-28T17:50:46.632Z,21.80
2022-09-28T17:53:13.602Z,21.80
2022-09-28T17:55:40.650Z,21.80
2022-09-28T17:58:18.313Z,21.80
2022-09-28T18:00:48.901Z,21.80
2022-09-28T18:03:22.666Z,21.80
2022-09-28T18:05:53.625Z,21.80
2022-09-28T18:08:21.014Z,21.80
2022-09-28T18:10:47.668Z,21.80
2022-09-28T18:13:14.759Z,21.80
2022-09-28T18:15:41.736Z,21.70
2022-09-28T18:18:09.608Z,21.80
2022-09-28T18:20:36.513Z,21.80
2022-09-28T18:23:03.352Z,21.60
2022-09-28T18:25:30.076Z,21.70
2022-09-28T18:27:57.572Z,21.70
2022-09-28T18:30:24.749Z,21.70
2022-09-28T18:32:51.524Z,21.70
2022-09-28T18:35:22.636Z,21.80
2022-09-28T18:37:49.961Z,21.70
2022-09-28T18:40:16.609Z,21.70
2022-09-28T18:42:43.266Z,21.70
2022-09-28T18:45:14.285Z,21.70
2022-09-28T18:47:40.953Z,21.70
2022-09-28T18:50:07.911Z,21.70
2022-09-28T18:52:38.005Z,21.70
2022-09-28T18:55:05.646Z,21.90
2022-09-28T18:57:33.593Z,21.70
2022-09-28T19:00:10.894Z,21.70
2022-09-28T19:02:37.991Z,21.70
2022-09-28T19:05:05.758Z,21.70
2022-09-28T19:07:33.214Z,21.60
2022-09-28T19:09:59.922Z,21.70
2022-09-28T19:12:26.673Z,21.70
2022-09-28T19:14:53.278Z,21.70
2022-09-28T19:17:19.953Z,21.70
2022-09-28T19:19:46.614Z,21.70
2022-09-28T19:22:13.273Z,21.60
2022-09-28T19:24:39.939Z,21.60
2022-09-28T19:27:06.676Z,21.60
2022-09-28T19:29:33.274Z,21.60
2022-09-28T19:32:00.035Z,21.60
2022-09-28T19:34:29.992Z,21.60
2022-09-28T19:36:57.219Z,21.60
2022-09-28T19:39:23.900Z,21.70
2022-09-28T19:41:54.291Z,21.60
2022-09-28T19:44:29.822Z,21.60
2022-09-28T19:47:07.459Z,21.60
2022-09-28T19:49:38.149Z,21.60
2022-09-28T19:52:13.410Z,21.60
2022-09-28T19:54:43.648Z,21.60
2022-09-28T19:57:11.562Z,21.60
2022-09-28T19:59:38.570Z,21.60
2022-09-28T20:02:06.735Z,21.60
2022-09-28T20:04:33.411Z,21.60
2022-09-28T20:07:00.050Z,21.60
2022-09-28T20:09:26.703Z,21.60
2022-09-28T20:11:53.402Z,21.60
2022-09-28T20:14:21.524Z,21.60
2022-09-28T20:16:50.187Z,21.60
2022-09-28T20:19:21.056Z,21.40
2022-09-28T20:21:48.348Z,21.40
2022-09-28T20:24:17.074Z,21.60
2022-09-28T20:26:44.392Z,21.50
2022-09-28T20:29:11.054Z,21.60
2022-09-28T20:31:37.888Z,21.60
2022-09-28T20:34:05.359Z,21.60
2022-09-28T20:36:32.076Z,21.50
2022-09-28T20:39:01.767Z,21.60
2022-09-28T20:41:29.317Z,21.50
2022-09-28T20:43:56.577Z,21.50
2022-09-28T20:46:23.477Z,21.50
2022-09-28T20:48:50.283Z,21.50
2022-09-28T20:51:18.041Z,21.50
2022-09-28T20:53:49.623Z,21.70
2022-09-28T20:56:18.005Z,21.50
2022-09-28T20:58:44.607Z,21.50
2022-09-28T21:01:14.159Z,21.50
2022-09-28T21:03:40.901Z,21.50
2022-09-28T21:06:12.165Z,21.50
2022-09-28T21:08:38.955Z,21.50
2022-09-28T21:11:06.482Z,21.50
2022-09-28T21:13:33.418Z,21.50
2022-09-28T21:16:03.624Z,21.40
2022-09-28T21:18:30.699Z,21.50
2022-09-28T21:20:57.421Z,21.50
2022-09-28T21:23:25.087Z,21.40
2022-09-28T21:26:00.915Z,21.50
2022-09-28T21:28:27.554Z,21.40
2022-09-28T21:30:54.178Z,21.40
2022-09-28T21:33:20.811Z,21.50
2022-09-28T21:35:47.403Z,21.50
2022-09-28T21:38:14.024Z,21.40
2022-09-28T21:40:41.031Z,21.40
2022-09-28T21:43:07.977Z,21.40
2022-09-28T21:45:34.579Z,21.40
2022-09-28T21:48:01.339Z,21.40
2022-09-28T21:50:27.972Z,21.50
2022-09-28T21:52:55.449Z,21.40
2022-09-28T21:55:23.090Z,21.40
2022-09-28T21:57:50.800Z,21.70
2022-09-28T22:00:20.799Z,21.40
2022-09-28T22:02:47.450Z,21.40
2022-09-28T22:05:14.121Z,21.40
2022-09-28T22:07:41.310Z,21.40
2022-09-28T22:10:10.414Z,21.40
2022-09-28T22:12:37.073Z,21.40
2022-09-28T22:15:04.399Z,21.40
2022-09-28T22:17:31.078Z,21.40
2022-09-28T22:19:57.723Z,21.50
2022-09-28T22:22:28.941Z,21.40
2022-09-28T22:24:56.108Z,21.40
2022-09-28T22:27:23.995Z,21.40
2022-09-28T22:29:51.108Z,21.40
2022-09-28T22:32:17.777Z,21.40
2022-09-28T22:34:44.421Z,21.40
2022-09-28T22:37:11.180Z,21.40
2022-09-28T22:39:38.072Z,21.40
2022-09-28T22:42:04.811Z,21.40
2022-09-28T22:44:31.395Z,21.30
2022-09-28T22:46:58.061Z,21.40
2022-09-28T22:49:24.682Z,21.40
2022-09-28T22:51:51.750Z,21.40
2022-09-28T22:54:18.432Z,21.80
2022-09-28T22:56:45.163Z,21.40
2022-09-28T22:59:11.770Z,21.40
2022-09-28T23:01:38.642Z,21.40
2022-09-28T23:04:05.624Z,21.30
2022-09-28T23:06:33.185Z,21.40
2022-09-28T23:09:00.372Z,21.40
2022-09-28T23:11:27.688Z,21.30
2022-09-28T23:13:55.610Z,21.30
2022-09-28T23:16:24.798Z,21.30
2022-09-28T23:18:52.310Z,21.30
2022-09-28T23:21:20.117Z,21.30
2022-09-28T23:23:50.381Z,21.30
2022-09-28T23:26:18.282Z,21.30
2022-09-28T23:28:45.304Z,21.30
2022-09-28T23:31:19.019Z,21.30
2022-09-28T23:33:45.874Z,21.30
2022-09-28T23:36:12.592Z,21.30
2022-09-28T23:38:39.267Z,21.30
2022-09-28T23:41:05.935Z,21.10
2022-09-28T23:43:32.866Z,21.30
2022-09-28T23:45:59.501Z,21.30
2022-09-28T23:48:26.093Z,21.30
2022-09-28T23:50:52.659Z,21.30
2022-09-28T23:53:19.401Z,21.30
2022-09-28T23:55:45.996Z,21.30
2022-09-28T23:58:12.578Z,21.30
